sensor_id;sensor_type;location;lat;lon;timestamp;temperature;humidity
8402;DHT22;4238;48.404;9.498;2023-12-22T05:02:15;4.40;99.90
8402;DHT22;4238;48.404;9.498;2023-12-22T05:04:42;4.40;99.90
8402;DHT22;4238;48.404;9.498;2023-12-22T05:07:09;4.30;99.90
8402;DHT22;4238;48.404;9.498;2023-12-22T05:09:36;4.20;99.90
8402;DHT22;4238;48.404;9.498;2023-12-22T05:12:03;4.30;99.90
8402;DHT22;4238;48.404;9.498;2023-12-22T05:14:30;4.30;99.90
8402;DHT22;4238;48.404;9.498;2023-12-22T05:16:57;4.30;99.90
8402;DHT22;4238;48.404;9.498;2023-12-22T05:19:25;4.30;99.90
8402;DHT22;4238;48.404;9.498;2023-12-22T05:21:52;4.30;99.90
8402;DHT22;4238;48.404;9.498;2023-12-22T05:24:21;4.30;99.90
8402;DHT22;4238;48.404;9.498;2023-12-22T05:26:48;4.30;99.90
8402;DHT22;4238;48.404;9.498;2023-12-22T05:29:15;4.30;99.90
8402;DHT22;4238;48.404;9.498;2023-12-22T05:31:42;4.30;99.90
8402;DHT22;4238;48.404;9.498;2023-12-22T05:34:09;4.30;99.90
8402;DHT22;4238;48.404;9.498;2023-12-22T05:36:37;4.30;99.90
8402;DHT22;4238;48.404;9.498;2023-12-22T05:39:04;4.40;99.90
8402;DHT22;4238;48.404;9.498;2023-12-22T05:41:33;4.40;99.90
8402;DHT22;4238;48.404;9.498;2023-12-22T05:44:01;4.40;99.90
8402;DHT22;4238;48.404;9.498;2023-12-22T05:46:28;4.40;99.90
8402;DHT22;4238;48.404;9.498;2023-12-22T05:48:55;4.50;99.90
8402;DHT22;4238;48.404;9.498;2023-12-22T05:51:24;4.50;99.90
8402;DHT22;4238;48.404;9.498;2023-12-22T05:53:53;4.50;99.90
8402;DHT22;4238;48.404;9.498;2023-12-22T05:56:22;4.50;99.90
8402;DHT22;4238;48.404;9.498;2023-12-22T05:58:50;4.50;99.90
8402;DHT22;4238;48.404;9.498;2023-12-22T06:01:17;4.50;99.90
8402;DHT22;4238;48.404;9.498;2023-12-22T06:03:44;4.40;99.90
8402;DHT22;4238;48.404;9.498;2023-12-22T06:06:11;4.50;99.90
8402;DHT22;4238;48.404;9.498;2023-12-22T06:08:38;4.50;99.90
8402;DHT22;4238;48.404;9.498;2023-12-22T06:11:07;4.50;99.90
8402;DHT22;4238;48.404;9.498;2023-12-22T06:13:33;4.40;99.90
8402;DHT22;4238;48.404;9.498;2023-12-22T06:16:00;4.30;99.90
8402;DHT22;4238;48.404;9.498;2023-12-22T06:18:27;4.30;99.90
8402;DHT22;4238;48.404;9.498;2023-12-22T06:20:54;4.40;99.90
8402;DHT22;4238;48.404;9.498;2023-12-22T06:23:21;4.40;99.90
8402;DHT22;4238;48.404;9.498;2023-12-22T06:25:48;4.40;99.90
8402;DHT22;4238;48.404;9.498;2023-12-22T06:28:16;4.40;99.90
8402;DHT22;4238;48.404;9.498;2023-12-22T06:30:43;4.40;99.90
8402;DHT22;4238;48.404;9.498;2023-12-22T06:33:12;4.50;99.90
8402;DHT22;4238;48.404;9.498;2023-12-22T06:35:39;4.40;99.90
8402;DHT22;4238;48.404;9.498;2023-12-22T06:38:07;4.50;99.90
8402;DHT22;4238;48.404;9.498;2023-12-22T06:40:35;4.40;99.90
8402;DHT22;4238;48.404;9.498;2023-12-22T06:43:03;4.40;99.90
8402;DHT22;4238;48.404;9.498;2023-12-22T06:45:31;4.40;99.90
8402;DHT22;4238;48.404;9.498;2023-12-22T06:47:58;4.30;99.90
8402;DHT22;4238;48.404;9.498;2023-12-22T06:50:25;4.30;99.90
8402;DHT22;4238;48.404;9.498;2023-12-22T06:52:52;4.30;99.90
8402;DHT22;4238;48.404;9.498;2023-12-22T06:55:19;4.20;99.90
8402;DHT22;4238;48.404;9.498;2023-12-22T06:57:46;4.20;99.90
8402;DHT22;4238;48.404;9.498;2023-12-22T07:00:14;4.10;99.90
8402;DHT22;4238;48.404;9.498;2023-12-22T07:02:43;4.10;99.90
8402;DHT22;4238;48.404;9.498;2023-12-22T07:05:34;4.10;99.90
8402;DHT22;4238;48.404;9.498;2023-12-22T07:08:05;4.10;99.90
8402;DHT22;4238;48.404;9.498;2023-12-22T07:10:32;4.10;99.90
8402;DHT22;4238;48.404;9.498;2023-12-22T07:12:59;4.20;99.90
8402;DHT22;4238;48.404;9.498;2023-12-22T07:15:26;4.20;99.90
8402;DHT22;4238;48.404;9.498;2023-12-22T07:17:55;4.20;99.90
8402;DHT22;4238;48.404;9.498;2023-12-22T07:20:22;4.20;99.90
8402;DHT22;4238;48.404;9.498;2023-12-22T07:22:49;4.20;99.90
8402;DHT22;4238;48.404;9.498;2023-12-22T07:25:17;4.30;99.90
8402;DHT22;4238;48.404;9.498;2023-12-22T07:27:45;4.30;99.90
8402;DHT22;4238;48.404;9.498;2023-12-22T07:30:13;4.30;99.90
8402;DHT22;4238;48.404;9.498;2023-12-22T07:32:43;4.30;99.90
8402;DHT22;4238;48.404;9.498;2023-12-22T07:35:12;4.30;99.90
8402;DHT22;4238;48.404;9.498;2023-12-22T07:37:38;4.40;99.90
8402;DHT22;4238;48.404;9.498;2023-12-22T07:40:08;4.40;99.90
8402;DHT22;4238;48.404;9.498;2023-12-22T07:42:37;4.40;99.90
8402;DHT22;4238;48.404;9.498;2023-12-22T07:45:07;4.50;99.90
8402;DHT22;4238;48.404;9.498;2023-12-22T07:47:36;4.50;99.90
8402;DHT22;4238;48.404;9.498;2023-12-22T07:50:04;4.50;99.90
8402;DHT22;4238;48.404;9.498;2023-12-22T07:52:35;4.50;99.90
8402;DHT22;4238;48.404;9.498;2023-12-22T07:55:18;4.50;99.90
8402;DHT22;4238;48.404;9.498;2023-12-22T07:58:05;4.60;99.90
8402;DHT22;4238;48.404;9.498;2023-12-22T08:00:47;4.50;99.90
8402;DHT22;4238;48.404;9.498;2023-12-22T08:03:37;4.50;99.90
8402;DHT22;4238;48.404;9.498;2023-12-22T08:06:07;4.50;99.90
8402;DHT22;4238;48.404;9.498;2023-12-22T08:08:39;4.50;99.90
8402;DHT22;4238;48.404;9.498;2023-12-22T08:11:07;4.50;99.90
8402;DHT22;4238;48.404;9.498;2023-12-22T08:13:38;4.60;99.90
8402;DHT22;4238;48.404;9.498;2023-12-22T08:16:05;4.60;99.90
8402;DHT22;4238;48.404;9.498;2023-12-22T08:18:34;4.60;99.90
8402;DHT22;4238;48.404;9.498;2023-12-22T08:21:01;4.50;99.90
8402;DHT22;4238;48.404;9.498;2023-12-22T08:23:28;4.50;99.90
8402;DHT22;4238;48.404;9.498;2023-12-22T08:26:00;4.50;99.90
8402;DHT22;4238;48.404;9.498;2023-12-22T08:28:31;4.50;99.90
8402;DHT22;4238;48.404;9.498;2023-12-22T08:31:03;4.50;99.90
8402;DHT22;4238;48.404;9.498;2023-12-22T08:33:31;4.50;99.90
8402;DHT22;4238;48.404;9.498;2023-12-22T08:36:00;4.50;99.90
8402;DHT22;4238;48.404;9.498;2023-12-22T08:38:29;4.60;99.90
8402;DHT22;4238;48.404;9.498;2023-12-22T08:41:01;4.60;99.90
8402;DHT22;4238;48.404;9.498;2023-12-22T08:43:28;4.60;99.90
8402;DHT22;4238;48.404;9.498;2023-12-22T08:45:56;4.70;99.90
8402;DHT22;4238;48.404;9.498;2023-12-22T08:48:23;4.70;99.90
8402;DHT22;4238;48.404;9.498;2023-12-22T08:50:57;4.70;99.90
8402;DHT22;4238;48.404;9.498;2023-12-22T08:53:25;4.70;99.90
8402;DHT22;4238;48.404;9.498;2023-12-22T08:56:02;4.70;99.90
8402;DHT22;4238;48.404;9.498;2023-12-22T08:58:32;4.80;99.90
8402;DHT22;4238;48.404;9.498;2023-12-22T09:01:00;4.80;99.90
8402;DHT22;4238;48.404;9.498;2023-12-22T09:03:28;4.90;99.90
8402;DHT22;4238;48.404;9.498;2023-12-22T09:05:55;4.80;99.90
8402;DHT22;4238;48.404;9.498;2023-12-22T09:08:26;4.80;99.90
8402;DHT22;4238;48.404;9.498;2023-12-22T09:10:56;4.90;99.90
8402;DHT22;4238;48.404;9.498;2023-12-22T09:13:26;4.90;99.90
8402;DHT22;4238;48.404;9.498;2023-12-22T09:15:56;4.80;99.90
8402;DHT22;4238;48.404;9.498;2023-12-22T09:18:24;4.90;99.90
8402;DHT22;4238;48.404;9.498;2023-12-22T09:20:53;4.80;99.90
8402;DHT22;4238;48.404;9.498;2023-12-22T09:23:21;4.80;99.90
8402;DHT22;4238;48.404;9.498;2023-12-22T09:25:48;4.80;99.90
8402;DHT22;4238;48.404;9.498;2023-12-22T09:28:15;4.70;99.90
8402;DHT22;4238;48.404;9.498;2023-12-22T09:30:46;4.70;99.90
8402;DHT22;4238;48.404;9.498;2023-12-22T09:33:17;4.70;99.90
8402;DHT22;4238;48.404;9.498;2023-12-22T09:35:45;4.70;99.90
8402;DHT22;4238;48.404;9.498;2023-12-22T09:38:20;4.80;99.90
8402;DHT22;4238;48.404;9.498;2023-12-22T09:40:49;4.80;99.90
8402;DHT22;4238;48.404;9.498;2023-12-22T09:43:19;4.80;99.90
8402;DHT22;4238;48.404;9.498;2023-12-22T09:45:49;4.80;99.90
8402;DHT22;4238;48.404;9.498;2023-12-22T09:48:19;4.80;99.90
8402;DHT22;4238;48.404;9.498;2023-12-22T09:50:54;4.80;99.90
8402;DHT22;4238;48.404;9.498;2023-12-22T09:53:21;4.80;99.90
8402;DHT22;4238;48.404;9.498;2023-12-22T09:55:51;4.80;99.90
8402;DHT22;4238;48.404;9.498;2023-12-22T09:58:21;4.80;99.90
8402;DHT22;4238;48.404;9.498;2023-12-22T10:00:52;4.80;99.90
8402;DHT22;4238;48.404;9.498;2023-12-22T10:03:21;4.80;99.90
8402;DHT22;4238;48.404;9.498;2023-12-22T10:05:52;4.80;99.90
8402;DHT22;4238;48.404;9.498;2023-12-22T10:08:20;4.80;99.90
8402;DHT22;4238;48.404;9.498;2023-12-22T10:10:47;4.80;99.90
8402;DHT22;4238;48.404;9.498;2023-12-22T10:13:18;4.90;99.90
8402;DHT22;4238;48.404;9.498;2023-12-22T10:15:45;4.90;99.90
8402;DHT22;4238;48.404;9.498;2023-12-22T10:18:14;4.90;99.90
8402;DHT22;4238;48.404;9.498;2023-12-22T10:20:42;4.90;99.90
8402;DHT22;4238;48.404;9.498;2023-12-22T10:23:10;4.90;99.90
8402;DHT22;4238;48.404;9.498;2023-12-22T10:25:40;4.90;99.90
8402;DHT22;4238;48.404;9.498;2023-12-22T10:28:10;4.90;99.90
8402;DHT22;4238;48.404;9.498;2023-12-22T10:30:40;4.90;99.90
8402;DHT22;4238;48.404;9.498;2023-12-22T10:33:07;4.90;99.90
8402;DHT22;4238;48.404;9.498;2023-12-22T10:35:35;4.90;99.90
8402;DHT22;4238;48.404;9.498;2023-12-22T10:38:04;4.90;99.90
8402;DHT22;4238;48.404;9.498;2023-12-22T10:40:31;4.90;99.90
8402;DHT22;4238;48.404;9.498;2023-12-22T10:43:00;4.90;99.90
8402;DHT22;4238;48.404;9.498;2023-12-22T10:45:28;4.90;99.90
8402;DHT22;4238;48.404;9.498;2023-12-22T10:47:57;5.00;99.90
8402;DHT22;4238;48.404;9.498;2023-12-22T10:50:28;4.90;99.90
8402;DHT22;4238;48.404;9.498;2023-12-22T10:53:00;4.90;99.90
8402;DHT22;4238;48.404;9.498;2023-12-22T10:55:31;4.90;99.90
8402;DHT22;4238;48.404;9.498;2023-12-22T10:58:01;4.90;99.90
8402;DHT22;4238;48.404;9.498;2023-12-22T11:00:41;5.00;99.90
8402;DHT22;4238;48.404;9.498;2023-12-22T11:03:21;4.90;99.90
8402;DHT22;4238;48.404;9.498;2023-12-22T11:05:55;4.90;99.90
8402;DHT22;4238;48.404;9.498;2023-12-22T11:08:29;4.90;99.90
8402;DHT22;4238;48.404;9.498;2023-12-22T11:11:15;4.90;99.90
8402;DHT22;4238;48.404;9.498;2023-12-22T11:13:47;4.90;99.90
8402;DHT22;4238;48.404;9.498;2023-12-22T11:16:17;4.90;99.90
8402;DHT22;4238;48.404;9.498;2023-12-22T11:18:48;4.90;99.90
8402;DHT22;4238;48.404;9.498;2023-12-22T11:21:29;4.90;99.90
8402;DHT22;4238;48.404;9.498;2023-12-22T11:23:59;4.90;99.90
8402;DHT22;4238;48.404;9.498;2023-12-22T11:26:28;5.00;99.90
8402;DHT22;4238;48.404;9.498;2023-12-22T11:28:56;5.00;99.90
8402;DHT22;4238;48.404;9.498;2023-12-22T11:31:26;5.00;99.90
8402;DHT22;4238;48.404;9.498;2023-12-22T11:33:54;5.00;99.90
8402;DHT22;4238;48.404;9.498;2023-12-22T11:36:23;5.00;99.90
8402;DHT22;4238;48.404;9.498;2023-12-22T11:38:50;5.00;99.90
8402;DHT22;4238;48.404;9.498;2023-12-22T11:41:20;5.00;99.90
8402;DHT22;4238;48.404;9.498;2023-12-22T11:43:48;5.00;99.90
8402;DHT22;4238;48.404;9.498;2023-12-22T11:46:16;5.00;99.90
8402;DHT22;4238;48.404;9.498;2023-12-22T11:48:47;5.00;99.90
8402;DHT22;4238;48.404;9.498;2023-12-22T11:51:14;5.00;99.90
8402;DHT22;4238;48.404;9.498;2023-12-22T11:53:42;5.10;99.90
8402;DHT22;4238;48.404;9.498;2023-12-22T11:56:09;5.00;99.90
8402;DHT22;4238;48.404;9.498;2023-12-22T11:58:39;5.10;99.90
8402;DHT22;4238;48.404;9.498;2023-12-22T12:01:07;5.10;99.90
8402;DHT22;4238;48.404;9.498;2023-12-22T12:03:37;5.10;99.90
8402;DHT22;4238;48.404;9.498;2023-12-22T12:06:15;5.10;99.90
8402;DHT22;4238;48.404;9.498;2023-12-22T12:08:42;5.10;99.90
8402;DHT22;4238;48.404;9.498;2023-12-22T12:11:09;5.10;99.90
8402;DHT22;4238;48.404;9.498;2023-12-22T12:13:42;5.10;99.90
8402;DHT22;4238;48.404;9.498;2023-12-22T12:16:10;5.10;99.90
8402;DHT22;4238;48.404;9.498;2023-12-22T12:18:38;5.10;99.90
8402;DHT22;4238;48.404;9.498;2023-12-22T12:21:06;5.10;99.90
8402;DHT22;4238;48.404;9.498;2023-12-22T12:23:34;5.10;99.90
8402;DHT22;4238;48.404;9.498;2023-12-22T12:26:01;5.10;99.90
8402;DHT22;4238;48.404;9.498;2023-12-22T12:28:29;5.10;99.90
8402;DHT22;4238;48.404;9.498;2023-12-22T12:30:59;5.10;99.90
8402;DHT22;4238;48.404;9.498;2023-12-22T12:33:27;5.10;99.90
8402;DHT22;4238;48.404;9.498;2023-12-22T12:35:56;5.10;99.90
8402;DHT22;4238;48.404;9.498;2023-12-22T12:38:28;5.10;99.90
8402;DHT22;4238;48.404;9.498;2023-12-22T12:41:03;5.10;99.90
8402;DHT22;4238;48.404;9.498;2023-12-22T12:43:31;5.10;99.90
8402;DHT22;4238;48.404;9.498;2023-12-22T12:46:04;5.20;99.90
8402;DHT22;4238;48.404;9.498;2023-12-22T12:48:31;5.20;99.90
8402;DHT22;4238;48.404;9.498;2023-12-22T12:51:02;5.20;99.90
8402;DHT22;4238;48.404;9.498;2023-12-22T12:53:30;5.20;99.90
8402;DHT22;4238;48.404;9.498;2023-12-22T12:55:57;5.20;99.90
8402;DHT22;4238;48.404;9.498;2023-12-22T12:58:28;5.20;99.90
8402;DHT22;4238;48.404;9.498;2023-12-22T13:01:05;5.30;99.90
8402;DHT22;4238;48.404;9.498;2023-12-22T13:03:32;5.30;99.90
8402;DHT22;4238;48.404;9.498;2023-12-22T13:06:06;5.30;99.90
8402;DHT22;4238;48.404;9.498;2023-12-22T13:08:33;5.30;99.90
8402;DHT22;4238;48.404;9.498;2023-12-22T13:11:01;5.40;99.90
8402;DHT22;4238;48.404;9.498;2023-12-22T13:13:28;5.40;99.90
8402;DHT22;4238;48.404;9.498;2023-12-22T13:15:55;5.40;99.90
8402;DHT22;4238;48.404;9.498;2023-12-22T13:18:23;5.40;99.90
8402;DHT22;4238;48.404;9.498;2023-12-22T13:20:50;5.50;99.90
8402;DHT22;4238;48.404;9.498;2023-12-22T13:23:18;5.50;99.90
8402;DHT22;4238;48.404;9.498;2023-12-22T13:25:45;5.50;99.90
8402;DHT22;4238;48.404;9.498;2023-12-22T13:28:12;5.50;99.90
8402;DHT22;4238;48.404;9.498;2023-12-22T13:30:39;5.60;99.90
8402;DHT22;4238;48.404;9.498;2023-12-22T13:33:07;5.60;99.90
8402;DHT22;4238;48.404;9.498;2023-12-22T13:35:35;5.60;99.90
8402;DHT22;4238;48.404;9.498;2023-12-22T13:38:05;5.60;99.90
8402;DHT22;4238;48.404;9.498;2023-12-22T13:40:32;5.70;99.90
8402;DHT22;4238;48.404;9.498;2023-12-22T13:42:59;5.70;99.90
8402;DHT22;4238;48.404;9.498;2023-12-22T13:45:27;5.70;99.90
8402;DHT22;4238;48.404;9.498;2023-12-22T13:47:55;5.70;99.90
8402;DHT22;4238;48.404;9.498;2023-12-22T13:50:22;5.80;99.90
8402;DHT22;4238;48.404;9.498;2023-12-22T13:52:50;5.80;99.90
8402;DHT22;4238;48.404;9.498;2023-12-22T13:55:19;5.80;99.90
8402;DHT22;4238;48.404;9.498;2023-12-22T13:57:48;5.90;99.90
8402;DHT22;4238;48.404;9.498;2023-12-22T14:00:24;5.90;99.90
8402;DHT22;4238;48.404;9.498;2023-12-22T14:02:51;5.90;99.90
8402;DHT22;4238;48.404;9.498;2023-12-22T14:05:19;5.90;99.90
8402;DHT22;4238;48.404;9.498;2023-12-22T14:07:46;6.00;99.90
8402;DHT22;4238;48.404;9.498;2023-12-22T14:10:15;6.00;99.90
8402;DHT22;4238;48.404;9.498;2023-12-22T14:12:41;6.00;99.90
8402;DHT22;4238;48.404;9.498;2023-12-22T14:15:09;6.00;99.90
8402;DHT22;4238;48.404;9.498;2023-12-22T14:17:37;6.10;99.90
8402;DHT22;4238;48.404;9.498;2023-12-22T14:20:04;6.00;99.90
8402;DHT22;4238;48.404;9.498;2023-12-22T14:22:33;6.10;99.90
8402;DHT22;4238;48.404;9.498;2023-12-22T14:25:00;6.10;99.90
8402;DHT22;4238;48.404;9.498;2023-12-22T14:27:28;6.10;99.90
8402;DHT22;4238;48.404;9.498;2023-12-22T14:29:55;6.10;99.90
8402;DHT22;4238;48.404;9.498;2023-12-22T14:32:22;6.10;99.90
8402;DHT22;4238;48.404;9.498;2023-12-22T14:34:49;6.10;99.90
8402;DHT22;4238;48.404;9.498;2023-12-22T14:37:16;6.10;99.90
8402;DHT22;4238;48.404;9.498;2023-12-22T14:39:43;6.10;99.90
8402;DHT22;4238;48.404;9.498;2023-12-22T14:42:11;6.10;99.90
8402;DHT22;4238;48.404;9.498;2023-12-22T14:44:39;6.00;99.90
8402;DHT22;4238;48.404;9.498;2023-12-22T14:47:06;6.10;99.90
8402;DHT22;4238;48.404;9.498;2023-12-22T14:49:33;6.10;99.90
8402;DHT22;4238;48.404;9.498;2023-12-22T14:52:00;6.10;99.90
8402;DHT22;4238;48.404;9.498;2023-12-22T14:54:26;6.10;99.90
8402;DHT22;4238;48.404;9.498;2023-12-22T14:56:53;6.10;99.90
8402;DHT22;4238;48.404;9.498;2023-12-22T14:59:20;6.10;99.90
8402;DHT22;4238;48.404;9.498;2023-12-22T15:01:48;6.10;99.90
8402;DHT22;4238;48.404;9.498;2023-12-22T15:04:15;6.10;99.90
8402;DHT22;4238;48.404;9.498;2023-12-22T15:06:42;6.10;99.90
8402;DHT22;4238;48.404;9.498;2023-12-22T15:09:09;6.20;99.90
8402;DHT22;4238;48.404;9.498;2023-12-22T15:11:41;6.20;99.90
8402;DHT22;4238;48.404;9.498;2023-12-22T15:14:08;6.20;99.90
8402;DHT22;4238;48.404;9.498;2023-12-22T15:16:39;6.20;99.90
8402;DHT22;4238;48.404;9.498;2023-12-22T15:19:07;6.20;99.90
8402;DHT22;4238;48.404;9.498;2023-12-22T15:21:34;6.20;99.90
8402;DHT22;4238;48.404;9.498;2023-12-22T15:24:03;6.20;99.90
8402;DHT22;4238;48.404;9.498;2023-12-22T15:26:30;6.20;99.90
8402;DHT22;4238;48.404;9.498;2023-12-22T15:28:59;6.20;99.90
8402;DHT22;4238;48.404;9.498;2023-12-22T15:31:26;6.30;99.90
8402;DHT22;4238;48.404;9.498;2023-12-22T15:33:54;6.30;99.90
8402;DHT22;4238;48.404;9.498;2023-12-22T15:36:22;6.30;99.90
8402;DHT22;4238;48.404;9.498;2023-12-22T15:38:49;6.30;99.90
8402;DHT22;4238;48.404;9.498;2023-12-22T15:41:16;6.30;99.90
8402;DHT22;4238;48.404;9.498;2023-12-22T15:43:43;6.20;99.90
8402;DHT22;4238;48.404;9.498;2023-12-22T15:46:10;6.20;99.90
8402;DHT22;4238;48.404;9.498;2023-12-22T15:48:37;6.20;99.90
8402;DHT22;4238;48.404;9.498;2023-12-22T15:51:05;6.20;99.90
8402;DHT22;4238;48.404;9.498;2023-12-22T15:53:34;6.20;99.90
8402;DHT22;4238;48.404;9.498;2023-12-22T15:56:06;6.20;99.90
8402;DHT22;4238;48.404;9.498;2023-12-22T15:58:35;6.20;99.90
8402;DHT22;4238;48.404;9.498;2023-12-22T16:01:03;6.20;99.90
8402;DHT22;4238;48.404;9.498;2023-12-22T16:03:30;6.20;99.90
8402;DHT22;4238;48.404;9.498;2023-12-22T16:05:56;6.20;99.90
8402;DHT22;4238;48.404;9.498;2023-12-22T16:08:23;6.20;99.90
8402;DHT22;4238;48.404;9.498;2023-12-22T16:10:52;6.20;99.90
8402;DHT22;4238;48.404;9.498;2023-12-22T16:13:18;6.20;99.90
8402;DHT22;4238;48.404;9.498;2023-12-22T16:15:47;6.20;99.90
8402;DHT22;4238;48.404;9.498;2023-12-22T16:18:13;6.20;99.90
8402;DHT22;4238;48.404;9.498;2023-12-22T16:20:40;6.20;99.90
8402;DHT22;4238;48.404;9.498;2023-12-22T16:23:07;6.20;99.90
8402;DHT22;4238;48.404;9.498;2023-12-22T16:25:34;6.20;99.90
8402;DHT22;4238;48.404;9.498;2023-12-22T16:28:02;6.20;99.90
8402;DHT22;4238;48.404;9.498;2023-12-22T16:30:29;6.20;99.90
8402;DHT22;4238;48.404;9.498;2023-12-22T16:32:56;6.20;99.90
8402;DHT22;4238;48.404;9.498;2023-12-22T16:35:23;6.20;99.90
8402;DHT22;4238;48.404;9.498;2023-12-22T16:37:50;6.20;99.90
8402;DHT22;4238;48.404;9.498;2023-12-22T16:40:16;6.20;99.90
8402;DHT22;4238;48.404;9.498;2023-12-22T16:42:43;6.30;99.90
8402;DHT22;4238;48.404;9.498;2023-12-22T16:45:12;6.30;99.90
8402;DHT22;4238;48.404;9.498;2023-12-22T16:47:38;6.30;99.90
8402;DHT22;4238;48.404;9.498;2023-12-22T16:50:06;6.30;99.90
8402;DHT22;4238;48.404;9.498;2023-12-22T16:52:36;6.30;99.90
8402;DHT22;4238;48.404;9.498;2023-12-22T16:55:05;6.30;99.90
8402;DHT22;4238;48.404;9.498;2023-12-22T16:57:32;6.30;99.90
8402;DHT22;4238;48.404;9.498;2023-12-22T17:00:01;6.30;99.90
8402;DHT22;4238;48.404;9.498;2023-12-22T17:02:30;6.30;99.90
8402;DHT22;4238;48.404;9.498;2023-12-22T17:04:57;6.30;99.90
8402;DHT22;4238;48.404;9.498;2023-12-22T17:07:24;6.30;99.90
8402;DHT22;4238;48.404;9.498;2023-12-22T17:09:50;6.30;99.90
8402;DHT22;4238;48.404;9.498;2023-12-22T17:12:17;6.40;99.90
8402;DHT22;4238;48.404;9.498;2023-12-22T17:14:44;6.40;99.90
8402;DHT22;4238;48.404;9.498;2023-12-22T17:17:12;6.40;99.90
8402;DHT22;4238;48.404;9.498;2023-12-22T17:19:41;6.30;99.90
8402;DHT22;4238;48.404;9.498;2023-12-22T17:22:08;6.30;99.90
8402;DHT22;4238;48.404;9.498;2023-12-22T17:24:35;6.30;99.90
8402;DHT22;4238;48.404;9.498;2023-12-22T17:27:08;6.40;99.90
8402;DHT22;4238;48.404;9.498;2023-12-22T17:29:35;6.40;99.90
8402;DHT22;4238;48.404;9.498;2023-12-22T17:32:02;6.30;99.90
8402;DHT22;4238;48.404;9.498;2023-12-22T17:34:32;6.30;99.90
8402;DHT22;4238;48.404;9.498;2023-12-22T17:37:01;6.30;99.90
8402;DHT22;4238;48.404;9.498;2023-12-22T17:39:29;6.30;99.90
8402;DHT22;4238;48.404;9.498;2023-12-22T17:41:56;6.30;99.90
8402;DHT22;4238;48.404;9.498;2023-12-22T17:44:23;6.20;99.90
8402;DHT22;4238;48.404;9.498;2023-12-22T17:46:50;6.30;99.90
8402;DHT22;4238;48.404;9.498;2023-12-22T17:49:16;6.20;99.90
8402;DHT22;4238;48.404;9.498;2023-12-22T17:51:43;6.20;99.90
8402;DHT22;4238;48.404;9.498;2023-12-22T17:54:11;6.20;99.90
8402;DHT22;4238;48.404;9.498;2023-12-22T17:56:38;6.20;99.90
8402;DHT22;4238;48.404;9.498;2023-12-22T17:59:05;6.20;99.90
8402;DHT22;4238;48.404;9.498;2023-12-22T18:01:32;6.20;99.90
8402;DHT22;4238;48.404;9.498;2023-12-22T18:03:59;6.20;99.90
8402;DHT22;4238;48.404;9.498;2023-12-22T18:06:26;6.20;99.90
8402;DHT22;4238;48.404;9.498;2023-12-22T18:08:53;6.20;99.90
8402;DHT22;4238;48.404;9.498;2023-12-22T18:11:21;6.20;99.90
8402;DHT22;4238;48.404;9.498;2023-12-22T18:13:47;6.10;99.90
8402;DHT22;4238;48.404;9.498;2023-12-22T18:16:18;6.20;99.90
8402;DHT22;4238;48.404;9.498;2023-12-22T18:18:44;6.20;99.90
8402;DHT22;4238;48.404;9.498;2023-12-22T18:21:11;6.20;99.90
8402;DHT22;4238;48.404;9.498;2023-12-22T18:23:39;6.20;99.90
8402;DHT22;4238;48.404;9.498;2023-12-22T18:26:06;6.20;99.90
8402;DHT22;4238;48.404;9.498;2023-12-22T18:28:34;6.20;99.90
8402;DHT22;4238;48.404;9.498;2023-12-22T18:31:01;6.20;99.90
8402;DHT22;4238;48.404;9.498;2023-12-22T18:33:29;6.20;99.90
8402;DHT22;4238;48.404;9.498;2023-12-22T18:35:56;6.20;99.90
8402;DHT22;4238;48.404;9.498;2023-12-22T18:38:22;6.20;99.90
8402;DHT22;4238;48.404;9.498;2023-12-22T18:40:49;6.20;99.90
8402;DHT22;4238;48.404;9.498;2023-12-22T18:43:16;6.20;99.90
8402;DHT22;4238;48.404;9.498;2023-12-22T18:45:44;6.20;99.90
8402;DHT22;4238;48.404;9.498;2023-12-22T18:48:11;6.20;99.90
8402;DHT22;4238;48.404;9.498;2023-12-22T18:50:38;6.20;99.90
8402;DHT22;4238;48.404;9.498;2023-12-22T18:53:05;6.20;99.90
8402;DHT22;4238;48.404;9.498;2023-12-22T18:55:32;6.10;99.90
8402;DHT22;4238;48.404;9.498;2023-12-22T18:57:59;6.10;99.90
8402;DHT22;4238;48.404;9.498;2023-12-22T19:00:26;6.10;99.90
8402;DHT22;4238;48.404;9.498;2023-12-22T19:02:55;6.10;99.90
8402;DHT22;4238;48.404;9.498;2023-12-22T19:05:21;6.10;99.90
8402;DHT22;4238;48.404;9.498;2023-12-22T19:07:49;6.00;99.90
8402;DHT22;4238;48.404;9.498;2023-12-22T19:10:16;6.10;99.90
8402;DHT22;4238;48.404;9.498;2023-12-22T19:12:43;6.10;99.90
8402;DHT22;4238;48.404;9.498;2023-12-22T19:15:11;6.10;99.90
8402;DHT22;4238;48.404;9.498;2023-12-22T19:17:38;6.10;99.90
8402;DHT22;4238;48.404;9.498;2023-12-22T19:20:07;6.10;99.90
8402;DHT22;4238;48.404;9.498;2023-12-22T19:22:34;6.00;99.90
8402;DHT22;4238;48.404;9.498;2023-12-22T19:25:01;6.00;99.90
8402;DHT22;4238;48.404;9.498;2023-12-22T19:27:28;6.00;99.90
8402;DHT22;4238;48.404;9.498;2023-12-22T19:29:55;6.00;99.90
8402;DHT22;4238;48.404;9.498;2023-12-22T19:32:23;6.10;99.90
8402;DHT22;4238;48.404;9.498;2023-12-22T19:34:50;6.10;99.90
8402;DHT22;4238;48.404;9.498;2023-12-22T19:37:18;6.10;99.90
8402;DHT22;4238;48.404;9.498;2023-12-22T19:39:45;6.10;99.90
8402;DHT22;4238;48.404;9.498;2023-12-22T19:42:12;6.10;99.90
8402;DHT22;4238;48.404;9.498;2023-12-22T19:44:40;6.10;99.90
8402;DHT22;4238;48.404;9.498;2023-12-22T19:47:07;6.10;99.90
8402;DHT22;4238;48.404;9.498;2023-12-22T19:49:34;6.10;99.90
8402;DHT22;4238;48.404;9.498;2023-12-22T19:52:01;6.10;99.90
8402;DHT22;4238;48.404;9.498;2023-12-22T19:54:30;6.00;99.90
8402;DHT22;4238;48.404;9.498;2023-12-22T19:56:57;6.00;99.90
8402;DHT22;4238;48.404;9.498;2023-12-22T19:59:24;5.90;99.90
8402;DHT22;4238;48.404;9.498;2023-12-22T20:01:50;6.00;99.90
8402;DHT22;4238;48.404;9.498;2023-12-22T20:04:17;6.00;99.90
8402;DHT22;4238;48.404;9.498;2023-12-22T20:06:44;5.90;99.90
8402;DHT22;4238;48.404;9.498;2023-12-22T20:09:10;5.90;99.90
8402;DHT22;4238;48.404;9.498;2023-12-22T20:11:39;5.90;99.90
8402;DHT22;4238;48.404;9.498;2023-12-22T20:14:09;5.90;99.90
8402;DHT22;4238;48.404;9.498;2023-12-22T20:16:35;5.90;99.90
8402;DHT22;4238;48.404;9.498;2023-12-22T20:19:02;5.90;99.90
8402;DHT22;4238;48.404;9.498;2023-12-22T20:21:29;6.00;99.90
8402;DHT22;4238;48.404;9.498;2023-12-22T20:23:56;6.00;99.90
8402;DHT22;4238;48.404;9.498;2023-12-22T20:26:23;6.00;99.90
8402;DHT22;4238;48.404;9.498;2023-12-22T20:28:51;5.90;99.90
8402;DHT22;4238;48.404;9.498;2023-12-22T20:31:18;6.00;99.90
8402;DHT22;4238;48.404;9.498;2023-12-22T20:33:46;5.90;99.90
8402;DHT22;4238;48.404;9.498;2023-12-22T20:36:13;5.90;99.90
8402;DHT22;4238;48.404;9.498;2023-12-22T20:38:39;5.90;99.90
8402;DHT22;4238;48.404;9.498;2023-12-22T20:41:07;5.90;99.90
8402;DHT22;4238;48.404;9.498;2023-12-22T20:43:34;6.00;99.90
8402;DHT22;4238;48.404;9.498;2023-12-22T20:46:02;5.90;99.90
8402;DHT22;4238;48.404;9.498;2023-12-22T20:48:29;6.00;99.90
8402;DHT22;4238;48.404;9.498;2023-12-22T20:50:56;5.90;99.90
8402;DHT22;4238;48.404;9.498;2023-12-22T20:53:23;6.00;99.90
8402;DHT22;4238;48.404;9.498;2023-12-22T20:55:50;6.00;99.90
8402;DHT22;4238;48.404;9.498;2023-12-22T20:58:17;5.90;99.90
8402;DHT22;4238;48.404;9.498;2023-12-22T21:00:44;5.90;99.90
8402;DHT22;4238;48.404;9.498;2023-12-22T21:03:12;5.90;99.90
8402;DHT22;4238;48.404;9.498;2023-12-22T21:05:39;5.90;99.90
8402;DHT22;4238;48.404;9.498;2023-12-22T21:08:06;5.90;99.90
8402;DHT22;4238;48.404;9.498;2023-12-22T21:10:34;5.90;99.90
8402;DHT22;4238;48.404;9.498;2023-12-22T21:13:02;5.90;99.90
8402;DHT22;4238;48.404;9.498;2023-12-22T21:15:29;5.90;99.90
8402;DHT22;4238;48.404;9.498;2023-12-22T21:17:55;5.90;99.90
8402;DHT22;4238;48.404;9.498;2023-12-22T21:20:25;5.90;99.90
8402;DHT22;4238;48.404;9.498;2023-12-22T21:22:52;5.90;99.90
8402;DHT22;4238;48.404;9.498;2023-12-22T21:25:19;5.80;99.90